EST,Max TemperatureF,Mean TemperatureF,Min TemperatureF,Max Dew PointF,MeanDew PointF,Min DewpointF,Max Humidity, Mean Humidity, Min Humidity, Max Sea Level PressureIn, Mean Sea Level PressureIn, Min Sea Level PressureIn, Max VisibilityMiles, Mean VisibilityMiles, Min VisibilityMiles, Max Wind SpeedMPH, Mean Wind SpeedMPH, Max Gust SpeedMPH,PrecipitationIn, CloudCover, Events, WindDirDegrees
2013-11-1,69,56,43,56,47,41,89,66,43,29.78,29.70,29.55,10,10,5,25,8,39,0.35,5,Rain,244
2013-11-2,53,45,37,43,39,35,100,80,59,30.02,29.84,29.74,10,10,6,18,5,25,0.03,7,Rain,271
2013-11-3,50,38,26,36,31,21,92,64,36,30.48,30.23,29.99,10,10,10,12,4,17,0.03,5,Rain,320
2013-11-4,57,39,21,30,25,19,92,61,30,30.59,30.51,30.45,10,10,10,9,2,12,0.00,0,,169
2013-11-5,61,46,30,33,29,18,89,56,22,30.58,30.49,30.43,10,10,10,12,3,17,0.00,0,,160
2013-11-6,69,49,29,47,38,14,92,53,13,30.43,30.25,30.02,10,10,10,15,5,22,0.00,2,,167
2013-11-7,60,49,37,52,40,23,93,74,54,30.19,30.05,29.95,10,10,9,21,8,28,0.35,8,Rain,267
2013-11-8,45,34,23,27,24,21,88,67,45,30.37,30.28,30.18,10,10,10,18,7,26,T,5,Snow,292
2013-11-9,60,41,21,30,20,8,96,55,13,30.36,30.23,30.12,10,10,10,20,4,26,T,0,,236
2013-11-10,51,42,32,33,27,22,64,49,34,30.35,30.20,30.09,10,10,10,23,11,33,0.00,3,,280
2013-11-11,60,41,22,30,17,3,92,52,11,30.37,30.25,30.06,10,10,10,21,4,29,T,5,,240
2013-11-12,53,38,22,37,24,18,92,58,24,30.53,30.30,30.06,10,6,1,20,6,28,0.28,8,Rain-Snow,338
2013-11-13,31,24,17,18,16,14,84,69,53,30.61,30.54,30.43,10,10,10,15,4,22,0.00,4,,290
2013-11-14,54,34,14,24,16,10,92,56,19,30.51,30.42,30.32,10,10,10,8,0,12,0.00,0,,280
2013-11-15,57,38,18,39,24,15,93,57,20,30.38,30.30,30.22,10,10,8,15,2,20,0.12,3,Rain,237
2013-11-16,62,50,37,49,42,36,100,80,60,30.30,30.23,30.17,10,7,0,10,2,14,0.02,5,Fog-Rain,161
2013-11-17,63,56,49,55,49,42,83,72,60,30.14,29.97,29.71,10,10,10,37,7,56,0.20,6,Rain,168
2013-11-18,56,48,39,43,32,25,71,52,32,30.08,29.92,29.84,10,10,10,26,11,37,T,2,,266
2013-11-19,39,32,24,25,22,20,88,71,54,30.41,30.25,30.09,10,10,10,18,6,26,0.00,7,,323
2013-11-20,51,35,19,25,12,1,92,53,14,30.47,30.42,30.38,10,10,10,16,5,23,0.00,0,,145
2013-11-21,56,42,27,40,32,22,86,69,51,30.49,30.41,30.33,10,10,10,10,3,15,0.00,3,,154
2013-11-22,56,50,43,54,48,39,96,89,82,30.30,30.19,30.11,10,8,4,17,5,22,0.50,8,Rain,293
2013-11-23,43,32,21,39,25,7,92,74,56,30.35,30.23,30.14,10,10,3,25,10,33,0.02,8,Rain-Snow,314
2013-11-24,23,17,11,10,5,2,83,62,41,30.58,30.49,30.28,10,9,4,22,10,30,T,5,Snow,304
2013-11-25,47,29,10,24,10,4,84,51,17,30.58,30.44,30.30,10,10,10,16,1,21,0.00,3,,245
2013-11-26,44,38,32,43,36,26,100,82,64,30.27,29.96,29.65,10,6,2,8,1,13,1.11,8,Rain-Snow,215
2013-11-27,37,29,20,34,23,10,92,80,67,30.20,29.84,29.69,10,6,1,23,10,33,0.14,8,Snow,305
2013-11-28,33,27,20,20,14,10,75,62,49,30.48,30.36,30.12,10,10,6,17,4,25,T,7,Snow,270
2013-11-29,37,27,17,20,17,14,91,69,47,30.67,30.60,30.49,10,10,10,9,2,13,0.00,4,,244
2013-11-30,45,30,15,26,18,11,88,67,45,30.63,30.51,30.33,10,10,10,8,1,12,0.00,0,,157